sensor_id;sensor_type;location;lat;lon;timestamp;P1;durP1;ratioP1;P2;durP2;ratioP2
15061;SDS011;7630;50.306;8.566;2023-01-19T00:02:24;17.10;;;14.27;;
15061;SDS011;7630;50.306;8.566;2023-01-19T00:06:26;19.03;;;14.77;;
15061;SDS011;7630;50.306;8.566;2023-01-19T00:10:27;18.93;;;15.80;;
15061;SDS011;7630;50.306;8.566;2023-01-19T00:14:28;14.53;;;13.00;;
15061;SDS011;7630;50.306;8.566;2023-01-19T00:18:29;15.90;;;12.23;;
15061;SDS011;7630;50.306;8.566;2023-01-19T00:22:30;19.47;;;13.97;;
15061;SDS011;7630;50.306;8.566;2023-01-19T00:26:31;15.80;;;13.47;;
15061;SDS011;7630;50.306;8.566;2023-01-19T00:30:33;17.10;;;12.07;;
15061;SDS011;7630;50.306;8.566;2023-01-19T00:34:34;14.17;;;12.67;;
15061;SDS011;7630;50.306;8.566;2023-01-19T00:38:40;17.20;;;15.50;;
15061;SDS011;7630;50.306;8.566;2023-01-19T00:42:42;15.43;;;13.83;;
15061;SDS011;7630;50.306;8.566;2023-01-19T00:46:48;17.60;;;15.10;;
15061;SDS011;7630;50.306;8.566;2023-01-19T00:50:49;19.33;;;15.40;;
15061;SDS011;7630;50.306;8.566;2023-01-19T00:54:50;17.57;;;14.70;;
15061;SDS011;7630;50.306;8.566;2023-01-19T00:58:51;16.20;;;14.57;;
15061;SDS011;7630;50.306;8.566;2023-01-19T01:02:52;28.10;;;22.60;;
15061;SDS011;7630;50.306;8.566;2023-01-19T01:06:54;26.33;;;23.23;;
15061;SDS011;7630;50.306;8.566;2023-01-19T01:10:55;18.47;;;15.93;;
15061;SDS011;7630;50.306;8.566;2023-01-19T01:14:56;21.43;;;16.63;;
15061;SDS011;7630;50.306;8.566;2023-01-19T01:18:57;21.53;;;16.77;;
15061;SDS011;7630;50.306;8.566;2023-01-19T01:22:58;19.07;;;16.93;;
15061;SDS011;7630;50.306;8.566;2023-01-19T01:27:00;19.57;;;17.67;;
15061;SDS011;7630;50.306;8.566;2023-01-19T01:31:01;22.43;;;19.13;;
15061;SDS011;7630;50.306;8.566;2023-01-19T01:35:03;22.10;;;19.20;;
15061;SDS011;7630;50.306;8.566;2023-01-19T01:39:04;21.43;;;18.77;;
15061;SDS011;7630;50.306;8.566;2023-01-19T01:43:12;20.73;;;18.33;;
15061;SDS011;7630;50.306;8.566;2023-01-19T01:47:37;23.43;;;17.23;;
15061;SDS011;7630;50.306;8.566;2023-01-19T01:55:41;19.47;;;17.53;;
15061;SDS011;7630;50.306;8.566;2023-01-19T01:59:45;24.80;;;18.37;;
15061;SDS011;7630;50.306;8.566;2023-01-19T02:03:48;21.33;;;18.53;;
15061;SDS011;7630;50.306;8.566;2023-01-19T02:12:16;19.93;;;17.47;;
15061;SDS011;7630;50.306;8.566;2023-01-19T02:16:35;19.37;;;17.20;;
15061;SDS011;7630;50.306;8.566;2023-01-19T02:20:37;19.37;;;15.77;;
15061;SDS011;7630;50.306;8.566;2023-01-19T02:24:41;20.07;;;15.77;;
15061;SDS011;7630;50.306;8.566;2023-01-19T02:33:07;16.40;;;14.33;;
15061;SDS011;7630;50.306;8.566;2023-01-19T02:37:10;17.50;;;15.80;;
15061;SDS011;7630;50.306;8.566;2023-01-19T02:41:15;21.43;;;15.57;;
15061;SDS011;7630;50.306;8.566;2023-01-19T02:45:21;15.43;;;13.90;;
15061;SDS011;7630;50.306;8.566;2023-01-19T02:49:22;16.73;;;12.53;;
15061;SDS011;7630;50.306;8.566;2023-01-19T02:53:31;14.90;;;13.50;;
15061;SDS011;7630;50.306;8.566;2023-01-19T03:06:21;14.63;;;13.03;;
15061;SDS011;7630;50.306;8.566;2023-01-19T03:14:55;14.27;;;12.77;;
15061;SDS011;7630;50.306;8.566;2023-01-19T03:19:07;14.97;;;11.20;;
15061;SDS011;7630;50.306;8.566;2023-01-19T03:23:07;12.80;;;11.50;;
15061;SDS011;7630;50.306;8.566;2023-01-19T03:27:12;12.50;;;11.07;;
15061;SDS011;7630;50.306;8.566;2023-01-19T03:31:16;14.63;;;13.13;;
15061;SDS011;7630;50.306;8.566;2023-01-19T03:35:21;12.57;;;11.37;;
15061;SDS011;7630;50.306;8.566;2023-01-19T03:39:26;11.53;;;10.47;;
15061;SDS011;7630;50.306;8.566;2023-01-19T03:43:27;14.77;;;12.07;;
15061;SDS011;7630;50.306;8.566;2023-01-19T03:47:31;13.07;;;11.13;;
15061;SDS011;7630;50.306;8.566;2023-01-19T03:51:36;12.33;;;11.13;;
15061;SDS011;7630;50.306;8.566;2023-01-19T03:55:43;14.30;;;10.73;;
15061;SDS011;7630;50.306;8.566;2023-01-19T03:59:42;11.97;;;10.67;;
15061;SDS011;7630;50.306;8.566;2023-01-19T04:03:43;11.13;;;10.03;;
15061;SDS011;7630;50.306;8.566;2023-01-19T04:07:47;11.53;;;9.67;;
15061;SDS011;7630;50.306;8.566;2023-01-19T04:11:49;13.77;;;11.47;;
15061;SDS011;7630;50.306;8.566;2023-01-19T04:15:51;17.40;;;13.97;;
15061;SDS011;7630;50.306;8.566;2023-01-19T04:19:52;16.07;;;14.43;;
15061;SDS011;7630;50.306;8.566;2023-01-19T04:23:53;19.13;;;15.83;;
15061;SDS011;7630;50.306;8.566;2023-01-19T04:27:54;18.27;;;16.23;;
15061;SDS011;7630;50.306;8.566;2023-01-19T04:31:58;17.00;;;15.20;;
15061;SDS011;7630;50.306;8.566;2023-01-19T04:35:59;23.00;;;15.37;;
15061;SDS011;7630;50.306;8.566;2023-01-19T04:40:00;16.90;;;15.13;;
15061;SDS011;7630;50.306;8.566;2023-01-19T04:44:01;17.37;;;15.57;;
15061;SDS011;7630;50.306;8.566;2023-01-19T04:48:03;19.00;;;15.40;;
15061;SDS011;7630;50.306;8.566;2023-01-19T04:52:05;19.23;;;17.20;;
15061;SDS011;7630;50.306;8.566;2023-01-19T04:56:06;21.07;;;19.07;;
15061;SDS011;7630;50.306;8.566;2023-01-19T05:00:07;19.20;;;17.20;;
15061;SDS011;7630;50.306;8.566;2023-01-19T05:04:09;21.07;;;18.93;;
15061;SDS011;7630;50.306;8.566;2023-01-19T05:08:11;19.93;;;17.80;;
15061;SDS011;7630;50.306;8.566;2023-01-19T05:12:12;19.77;;;16.57;;
15061;SDS011;7630;50.306;8.566;2023-01-19T05:16:13;22.87;;;17.47;;
15061;SDS011;7630;50.306;8.566;2023-01-19T05:20:15;21.37;;;17.70;;
15061;SDS011;7630;50.306;8.566;2023-01-19T05:24:17;21.20;;;18.93;;
15061;SDS011;7630;50.306;8.566;2023-01-19T05:28:18;21.33;;;18.00;;
15061;SDS011;7630;50.306;8.566;2023-01-19T05:32:20;19.80;;;17.73;;
15061;SDS011;7630;50.306;8.566;2023-01-19T05:36:22;13.83;;;12.50;;
15061;SDS011;7630;50.306;8.566;2023-01-19T05:40:23;14.60;;;13.00;;
15061;SDS011;7630;50.306;8.566;2023-01-19T05:44:24;14.33;;;12.20;;
15061;SDS011;7630;50.306;8.566;2023-01-19T05:48:25;14.37;;;12.50;;
15061;SDS011;7630;50.306;8.566;2023-01-19T05:52:26;12.87;;;11.60;;
15061;SDS011;7630;50.306;8.566;2023-01-19T05:56:27;13.90;;;10.40;;
15061;SDS011;7630;50.306;8.566;2023-01-19T06:00:28;12.50;;;11.33;;
15061;SDS011;7630;50.306;8.566;2023-01-19T06:04:29;16.65;;;15.25;;
15061;SDS011;7630;50.306;8.566;2023-01-19T06:08:30;17.32;;;15.68;;
15061;SDS011;7630;50.306;8.566;2023-01-19T06:12:31;17.00;;;15.37;;
15061;SDS011;7630;50.306;8.566;2023-01-19T06:16:32;17.27;;;15.40;;
15061;SDS011;7630;50.306;8.566;2023-01-19T06:20:34;17.03;;;15.40;;
15061;SDS011;7630;50.306;8.566;2023-01-19T06:24:35;23.97;;;20.17;;
15061;SDS011;7630;50.306;8.566;2023-01-19T06:28:36;19.97;;;17.50;;
15061;SDS011;7630;50.306;8.566;2023-01-19T06:32:37;20.77;;;18.20;;
15061;SDS011;7630;50.306;8.566;2023-01-19T06:36:38;22.93;;;19.13;;
15061;SDS011;7630;50.306;8.566;2023-01-19T06:40:40;21.07;;;18.97;;
15061;SDS011;7630;50.306;8.566;2023-01-19T06:44:41;25.13;;;18.17;;
15061;SDS011;7630;50.306;8.566;2023-01-19T06:48:44;31.33;;;20.80;;
15061;SDS011;7630;50.306;8.566;2023-01-19T06:52:45;25.67;;;22.93;;
15061;SDS011;7630;50.306;8.566;2023-01-19T06:56:50;26.97;;;24.10;;
15061;SDS011;7630;50.306;8.566;2023-01-19T07:00:51;30.90;;;27.60;;
15061;SDS011;7630;50.306;8.566;2023-01-19T07:04:52;27.83;;;24.67;;
15061;SDS011;7630;50.306;8.566;2023-01-19T07:08:53;27.40;;;24.53;;
15061;SDS011;7630;50.306;8.566;2023-01-19T07:17:04;15.87;;;14.07;;
15061;SDS011;7630;50.306;8.566;2023-01-19T07:21:06;12.87;;;11.67;;
15061;SDS011;7630;50.306;8.566;2023-01-19T07:25:07;13.07;;;10.57;;
15061;SDS011;7630;50.306;8.566;2023-01-19T07:29:09;11.90;;;10.23;;
15061;SDS011;7630;50.306;8.566;2023-01-19T07:33:10;11.97;;;10.87;;
15061;SDS011;7630;50.306;8.566;2023-01-19T07:37:11;12.30;;;10.33;;
15061;SDS011;7630;50.306;8.566;2023-01-19T07:41:13;14.10;;;10.73;;
15061;SDS011;7630;50.306;8.566;2023-01-19T07:45:19;12.83;;;10.37;;
15061;SDS011;7630;50.306;8.566;2023-01-19T07:49:18;9.87;;;8.97;;
15061;SDS011;7630;50.306;8.566;2023-01-19T07:53:20;11.63;;;10.53;;
15061;SDS011;7630;50.306;8.566;2023-01-19T07:57:22;11.53;;;10.33;;
15061;SDS011;7630;50.306;8.566;2023-01-19T08:01:23;11.73;;;10.57;;
15061;SDS011;7630;50.306;8.566;2023-01-19T08:05:25;11.80;;;10.70;;
15061;SDS011;7630;50.306;8.566;2023-01-19T08:09:28;12.60;;;11.40;;
15061;SDS011;7630;50.306;8.566;2023-01-19T08:13:29;11.73;;;10.73;;
15061;SDS011;7630;50.306;8.566;2023-01-19T08:17:31;11.60;;;10.43;;
15061;SDS011;7630;50.306;8.566;2023-01-19T08:21:32;12.17;;;10.10;;
15061;SDS011;7630;50.306;8.566;2023-01-19T08:25:39;11.17;;;10.10;;
15061;SDS011;7630;50.306;8.566;2023-01-19T08:29:40;10.97;;;9.70;;
15061;SDS011;7630;50.306;8.566;2023-01-19T08:33:41;11.23;;;8.97;;
15061;SDS011;7630;50.306;8.566;2023-01-19T08:37:42;10.10;;;9.00;;
15061;SDS011;7630;50.306;8.566;2023-01-19T08:41:44;10.37;;;9.57;;
15061;SDS011;7630;50.306;8.566;2023-01-19T08:45:45;10.33;;;9.37;;
15061;SDS011;7630;50.306;8.566;2023-01-19T08:49:50;10.90;;;9.83;;
15061;SDS011;7630;50.306;8.566;2023-01-19T08:53:51;10.20;;;9.40;;
15061;SDS011;7630;50.306;8.566;2023-01-19T08:57:52;9.57;;;8.50;;
15061;SDS011;7630;50.306;8.566;2023-01-19T09:01:56;9.77;;;8.87;;
15061;SDS011;7630;50.306;8.566;2023-01-19T09:05:57;8.67;;;7.87;;
15061;SDS011;7630;50.306;8.566;2023-01-19T09:09:59;11.83;;;10.50;;
15061;SDS011;7630;50.306;8.566;2023-01-19T09:14:00;11.83;;;10.13;;
15061;SDS011;7630;50.306;8.566;2023-01-19T09:18:06;13.07;;;10.83;;
15061;SDS011;7630;50.306;8.566;2023-01-19T09:22:05;13.20;;;8.50;;
15061;SDS011;7630;50.306;8.566;2023-01-19T09:26:07;10.77;;;9.00;;
15061;SDS011;7630;50.306;8.566;2023-01-19T09:30:08;11.43;;;10.33;;
15061;SDS011;7630;50.306;8.566;2023-01-19T09:34:11;9.67;;;8.80;;
15061;SDS011;7630;50.306;8.566;2023-01-19T09:38:12;10.40;;;9.30;;
15061;SDS011;7630;50.306;8.566;2023-01-19T09:46:43;10.37;;;9.27;;
15061;SDS011;7630;50.306;8.566;2023-01-19T09:50:45;9.67;;;8.63;;
15061;SDS011;7630;50.306;8.566;2023-01-19T09:54:55;10.23;;;8.90;;
15061;SDS011;7630;50.306;8.566;2023-01-19T09:58:57;11.87;;;10.73;;
15061;SDS011;7630;50.306;8.566;2023-01-19T10:03:33;10.77;;;9.70;;
15061;SDS011;7630;50.306;8.566;2023-01-19T10:07:33;10.23;;;9.20;;
15061;SDS011;7630;50.306;8.566;2023-01-19T10:12:03;13.10;;;11.10;;
15061;SDS011;7630;50.306;8.566;2023-01-19T10:20:32;14.27;;;12.83;;
15061;SDS011;7630;50.306;8.566;2023-01-19T10:24:37;10.80;;;8.80;;
15061;SDS011;7630;50.306;8.566;2023-01-19T10:28:40;10.47;;;9.37;;
15061;SDS011;7630;50.306;8.566;2023-01-19T10:32:43;9.60;;;8.70;;
15061;SDS011;7630;50.306;8.566;2023-01-19T10:36:46;9.67;;;8.87;;
15061;SDS011;7630;50.306;8.566;2023-01-19T10:44:53;10.33;;;8.67;;
15061;SDS011;7630;50.306;8.566;2023-01-19T10:48:55;9.17;;;7.93;;
15061;SDS011;7630;50.306;8.566;2023-01-19T10:53:00;7.73;;;7.00;;
15061;SDS011;7630;50.306;8.566;2023-01-19T10:57:05;8.70;;;7.93;;
15061;SDS011;7630;50.306;8.566;2023-01-19T11:01:13;10.40;;;9.50;;
15061;SDS011;7630;50.306;8.566;2023-01-19T11:05:20;9.00;;;8.20;;
15061;SDS011;7630;50.306;8.566;2023-01-19T11:09:24;9.17;;;8.03;;
15061;SDS011;7630;50.306;8.566;2023-01-19T11:13:25;8.50;;;7.60;;
15061;SDS011;7630;50.306;8.566;2023-01-19T11:17:26;9.73;;;8.73;;
15061;SDS011;7630;50.306;8.566;2023-01-19T11:51:29;15.07;;;7.40;;
15061;SDS011;7630;50.306;8.566;2023-01-19T11:59:50;8.20;;;7.50;;
15061;SDS011;7630;50.306;8.566;2023-01-19T12:04:00;8.97;;;8.00;;
15061;SDS011;7630;50.306;8.566;2023-01-19T12:08:05;8.93;;;8.03;;
15061;SDS011;7630;50.306;8.566;2023-01-19T12:12:23;9.83;;;7.97;;
15061;SDS011;7630;50.306;8.566;2023-01-19T12:16:28;7.90;;;7.20;;
15061;SDS011;7630;50.306;8.566;2023-01-19T12:20:36;9.37;;;8.40;;
15061;SDS011;7630;50.306;8.566;2023-01-19T12:24:42;9.40;;;8.50;;
15061;SDS011;7630;50.306;8.566;2023-01-19T12:28:48;9.83;;;9.03;;
15061;SDS011;7630;50.306;8.566;2023-01-19T12:32:51;12.10;;;8.37;;
15061;SDS011;7630;50.306;8.566;2023-01-19T12:37:03;9.97;;;9.07;;
15061;SDS011;7630;50.306;8.566;2023-01-19T12:41:15;10.90;;;9.80;;
15061;SDS011;7630;50.306;8.566;2023-01-19T12:45:22;11.37;;;10.23;;
15061;SDS011;7630;50.306;8.566;2023-01-19T12:49:27;9.37;;;8.47;;
15061;SDS011;7630;50.306;8.566;2023-01-19T12:53:36;11.33;;;10.20;;
15061;SDS011;7630;50.306;8.566;2023-01-19T12:57:39;10.27;;;9.27;;
15061;SDS011;7630;50.306;8.566;2023-01-19T13:01:43;13.40;;;9.43;;
15061;SDS011;7630;50.306;8.566;2023-01-19T13:09:54;12.63;;;11.33;;
15061;SDS011;7630;50.306;8.566;2023-01-19T13:18:01;12.93;;;11.73;;
15061;SDS011;7630;50.306;8.566;2023-01-19T13:22:47;11.67;;;10.17;;
15061;SDS011;7630;50.306;8.566;2023-01-19T13:26:34;10.13;;;9.23;;
15061;SDS011;7630;50.306;8.566;2023-01-19T13:30:38;11.87;;;10.67;;
15061;SDS011;7630;50.306;8.566;2023-01-19T13:34:56;10.77;;;9.47;;
15061;SDS011;7630;50.306;8.566;2023-01-19T13:38:59;10.73;;;8.80;;
15061;SDS011;7630;50.306;8.566;2023-01-19T13:43:03;9.97;;;8.90;;
15061;SDS011;7630;50.306;8.566;2023-01-19T13:47:07;46.50;;;35.13;;
15061;SDS011;7630;50.306;8.566;2023-01-19T13:51:16;14.40;;;12.90;;
15061;SDS011;7630;50.306;8.566;2023-01-19T13:55:16;14.20;;;12.70;;
15061;SDS011;7630;50.306;8.566;2023-01-19T13:59:18;15.07;;;13.30;;
15061;SDS011;7630;50.306;8.566;2023-01-19T14:03:20;17.20;;;13.53;;
15061;SDS011;7630;50.306;8.566;2023-01-19T14:07:23;11.57;;;10.47;;
15061;SDS011;7630;50.306;8.566;2023-01-19T14:11:27;12.53;;;10.33;;
15061;SDS011;7630;50.306;8.566;2023-01-19T14:15:29;13.90;;;10.10;;
15061;SDS011;7630;50.306;8.566;2023-01-19T14:19:48;11.90;;;10.87;;
15061;SDS011;7630;50.306;8.566;2023-01-19T14:32:40;14.77;;;12.23;;
15061;SDS011;7630;50.306;8.566;2023-01-19T14:36:36;16.17;;;14.53;;
15061;SDS011;7630;50.306;8.566;2023-01-19T14:40:39;17.97;;;14.87;;
15061;SDS011;7630;50.306;8.566;2023-01-19T14:44:40;15.00;;;13.47;;
15061;SDS011;7630;50.306;8.566;2023-01-19T14:48:45;13.73;;;11.83;;
15061;SDS011;7630;50.306;8.566;2023-01-19T14:56:56;16.13;;;13.93;;
15061;SDS011;7630;50.306;8.566;2023-01-19T15:00:57;12.37;;;10.40;;
15061;SDS011;7630;50.306;8.566;2023-01-19T15:04:58;14.10;;;12.70;;
15061;SDS011;7630;50.306;8.566;2023-01-19T15:08:59;15.73;;;12.27;;
15061;SDS011;7630;50.306;8.566;2023-01-19T15:13:00;13.63;;;12.20;;
15061;SDS011;7630;50.306;8.566;2023-01-19T15:17:02;15.37;;;11.80;;
15061;SDS011;7630;50.306;8.566;2023-01-19T15:21:03;15.10;;;12.40;;
15061;SDS011;7630;50.306;8.566;2023-01-19T15:25:04;18.03;;;16.23;;
15061;SDS011;7630;50.306;8.566;2023-01-19T15:29:25;17.97;;;16.07;;
15061;SDS011;7630;50.306;8.566;2023-01-19T15:33:22;17.47;;;15.67;;
15061;SDS011;7630;50.306;8.566;2023-01-19T15:37:24;16.77;;;14.07;;
15061;SDS011;7630;50.306;8.566;2023-01-19T15:41:26;15.63;;;14.03;;
15061;SDS011;7630;50.306;8.566;2023-01-19T15:45:36;19.53;;;13.77;;
15061;SDS011;7630;50.306;8.566;2023-01-19T15:49:48;12.47;;;11.13;;
15061;SDS011;7630;50.306;8.566;2023-01-19T15:53:49;13.23;;;11.93;;
15061;SDS011;7630;50.306;8.566;2023-01-19T15:57:51;14.87;;;13.27;;
15061;SDS011;7630;50.306;8.566;2023-01-19T16:01:53;14.93;;;12.17;;
15061;SDS011;7630;50.306;8.566;2023-01-19T16:05:58;17.48;;;15.13;;
15061;SDS011;7630;50.306;8.566;2023-01-19T16:10:01;14.93;;;12.00;;
15061;SDS011;7630;50.306;8.566;2023-01-19T16:14:05;12.63;;;11.43;;
15061;SDS011;7630;50.306;8.566;2023-01-19T16:18:07;13.17;;;11.77;;
15061;SDS011;7630;50.306;8.566;2023-01-19T16:22:11;13.23;;;11.67;;
15061;SDS011;7630;50.306;8.566;2023-01-19T16:26:26;14.27;;;12.87;;
15061;SDS011;7630;50.306;8.566;2023-01-19T16:30:30;13.40;;;11.97;;
15061;SDS011;7630;50.306;8.566;2023-01-19T16:34:31;16.67;;;14.90;;
15061;SDS011;7630;50.306;8.566;2023-01-19T16:38:32;18.13;;;14.87;;
15061;SDS011;7630;50.306;8.566;2023-01-19T16:42:33;20.47;;;15.03;;
15061;SDS011;7630;50.306;8.566;2023-01-19T16:46:35;16.57;;;13.90;;
15061;SDS011;7630;50.306;8.566;2023-01-19T16:50:39;16.30;;;14.33;;
15061;SDS011;7630;50.306;8.566;2023-01-19T16:54:40;13.83;;;12.27;;
15061;SDS011;7630;50.306;8.566;2023-01-19T16:58:42;14.77;;;12.27;;
15061;SDS011;7630;50.306;8.566;2023-01-19T17:02:44;15.80;;;14.23;;
15061;SDS011;7630;50.306;8.566;2023-01-19T17:06:45;25.30;;;21.57;;
15061;SDS011;7630;50.306;8.566;2023-01-19T17:10:46;18.33;;;16.13;;
15061;SDS011;7630;50.306;8.566;2023-01-19T17:14:49;19.73;;;15.97;;
15061;SDS011;7630;50.306;8.566;2023-01-19T17:18:50;32.37;;;21.50;;
15061;SDS011;7630;50.306;8.566;2023-01-19T17:22:51;26.13;;;23.13;;
15061;SDS011;7630;50.306;8.566;2023-01-19T17:26:52;31.13;;;24.47;;
15061;SDS011;7630;50.306;8.566;2023-01-19T17:30:53;53.37;;;42.87;;
15061;SDS011;7630;50.306;8.566;2023-01-19T17:34:55;38.53;;;29.63;;
15061;SDS011;7630;50.306;8.566;2023-01-19T17:38:57;32.73;;;28.73;;
15061;SDS011;7630;50.306;8.566;2023-01-19T17:42:59;22.03;;;19.73;;
15061;SDS011;7630;50.306;8.566;2023-01-19T17:47:00;23.13;;;20.83;;
15061;SDS011;7630;50.306;8.566;2023-01-19T17:51:07;25.07;;;22.50;;
15061;SDS011;7630;50.306;8.566;2023-01-19T17:55:09;25.77;;;23.13;;
15061;SDS011;7630;50.306;8.566;2023-01-19T17:59:11;24.63;;;22.13;;
15061;SDS011;7630;50.306;8.566;2023-01-19T18:03:12;23.33;;;20.80;;
15061;SDS011;7630;50.306;8.566;2023-01-19T18:07:13;28.63;;;25.37;;
15061;SDS011;7630;50.306;8.566;2023-01-19T18:11:14;28.50;;;25.53;;
15061;SDS011;7630;50.306;8.566;2023-01-19T18:15:17;28.40;;;25.92;;
15061;SDS011;7630;50.306;8.566;2023-01-19T18:19:19;64.60;;;52.60;;
15061;SDS011;7630;50.306;8.566;2023-01-19T18:23:21;87.07;;;58.57;;
15061;SDS011;7630;50.306;8.566;2023-01-19T18:27:23;31.57;;;26.33;;
15061;SDS011;7630;50.306;8.566;2023-01-19T18:31:24;29.33;;;25.57;;
15061;SDS011;7630;50.306;8.566;2023-01-19T18:35:28;26.77;;;18.00;;
15061;SDS011;7630;50.306;8.566;2023-01-19T18:39:29;25.80;;;18.83;;
15061;SDS011;7630;50.306;8.566;2023-01-19T18:43:30;22.10;;;19.77;;
15061;SDS011;7630;50.306;8.566;2023-01-19T18:47:32;28.67;;;25.60;;
15061;SDS011;7630;50.306;8.566;2023-01-19T18:51:33;25.30;;;19.07;;
15061;SDS011;7630;50.306;8.566;2023-01-19T18:55:34;15.77;;;14.13;;
15061;SDS011;7630;50.306;8.566;2023-01-19T18:59:36;27.62;;;25.20;;
15061;SDS011;7630;50.306;8.566;2023-01-19T19:03:37;26.10;;;23.80;;
15061;SDS011;7630;50.306;8.566;2023-01-19T19:07:39;30.92;;;27.17;;
15061;SDS011;7630;50.306;8.566;2023-01-19T19:11:42;41.63;;;36.47;;
15061;SDS011;7630;50.306;8.566;2023-01-19T19:15:43;28.57;;;25.47;;
15061;SDS011;7630;50.306;8.566;2023-01-19T19:19:45;34.07;;;29.77;;
15061;SDS011;7630;50.306;8.566;2023-01-19T19:23:50;31.07;;;21.57;;
15061;SDS011;7630;50.306;8.566;2023-01-19T19:27:53;28.00;;;19.50;;
15061;SDS011;7630;50.306;8.566;2023-01-19T19:31:54;39.70;;;35.40;;
15061;SDS011;7630;50.306;8.566;2023-01-19T19:35:57;34.67;;;27.70;;
15061;SDS011;7630;50.306;8.566;2023-01-19T19:39:58;21.20;;;18.97;;
15061;SDS011;7630;50.306;8.566;2023-01-19T19:43:59;24.53;;;19.60;;
15061;SDS011;7630;50.306;8.566;2023-01-19T19:48:01;22.37;;;18.90;;
15061;SDS011;7630;50.306;8.566;2023-01-19T19:52:03;29.37;;;25.00;;
15061;SDS011;7630;50.306;8.566;2023-01-19T19:56:05;38.50;;;27.03;;
15061;SDS011;7630;50.306;8.566;2023-01-19T20:00:08;28.57;;;22.00;;
15061;SDS011;7630;50.306;8.566;2023-01-19T20:04:11;19.10;;;17.03;;
15061;SDS011;7630;50.306;8.566;2023-01-19T20:08:13;18.60;;;16.67;;
15061;SDS011;7630;50.306;8.566;2023-01-19T20:12:14;19.17;;;15.13;;
15061;SDS011;7630;50.306;8.566;2023-01-19T20:16:17;14.10;;;12.60;;
15061;SDS011;7630;50.306;8.566;2023-01-19T20:20:19;27.90;;;17.53;;
15061;SDS011;7630;50.306;8.566;2023-01-19T20:24:21;15.73;;;14.23;;
15061;SDS011;7630;50.306;8.566;2023-01-19T20:28:22;26.40;;;18.63;;
15061;SDS011;7630;50.306;8.566;2023-01-19T20:32:24;16.43;;;13.33;;
15061;SDS011;7630;50.306;8.566;2023-01-19T20:36:25;13.90;;;12.47;;
15061;SDS011;7630;50.306;8.566;2023-01-19T20:40:28;19.67;;;17.10;;
15061;SDS011;7630;50.306;8.566;2023-01-19T20:44:29;28.47;;;21.30;;
15061;SDS011;7630;50.306;8.566;2023-01-19T20:48:30;31.10;;;25.10;;
15061;SDS011;7630;50.306;8.566;2023-01-19T20:52:33;28.30;;;23.90;;
15061;SDS011;7630;50.306;8.566;2023-01-19T20:56:34;27.07;;;21.67;;
15061;SDS011;7630;50.306;8.566;2023-01-19T21:00:36;26.10;;;23.57;;
15061;SDS011;7630;50.306;8.566;2023-01-19T21:04:37;45.20;;;20.67;;
15061;SDS011;7630;50.306;8.566;2023-01-19T21:08:39;18.43;;;13.93;;
15061;SDS011;7630;50.306;8.566;2023-01-19T21:12:41;20.10;;;14.57;;
15061;SDS011;7630;50.306;8.566;2023-01-19T21:16:42;48.13;;;41.47;;
15061;SDS011;7630;50.306;8.566;2023-01-19T21:20:43;26.23;;;20.67;;
15061;SDS011;7630;50.306;8.566;2023-01-19T21:24:46;21.93;;;17.60;;
15061;SDS011;7630;50.306;8.566;2023-01-19T21:28:47;15.90;;;14.27;;
15061;SDS011;7630;50.306;8.566;2023-01-19T21:32:49;24.07;;;17.33;;
15061;SDS011;7630;50.306;8.566;2023-01-19T21:36:51;16.27;;;14.60;;
15061;SDS011;7630;50.306;8.566;2023-01-19T21:40:53;14.30;;;12.77;;
15061;SDS011;7630;50.306;8.566;2023-01-19T21:44:55;12.73;;;11.03;;
15061;SDS011;7630;50.306;8.566;2023-01-19T21:48:57;16.87;;;12.70;;
15061;SDS011;7630;50.306;8.566;2023-01-19T21:52:59;17.53;;;15.80;;
15061;SDS011;7630;50.306;8.566;2023-01-19T21:57:00;21.83;;;19.43;;
15061;SDS011;7630;50.306;8.566;2023-01-19T22:01:03;24.33;;;20.80;;
15061;SDS011;7630;50.306;8.566;2023-01-19T22:05:06;21.33;;;18.87;;
15061;SDS011;7630;50.306;8.566;2023-01-19T22:09:10;24.13;;;21.60;;
15061;SDS011;7630;50.306;8.566;2023-01-19T22:13:11;24.13;;;20.80;;
15061;SDS011;7630;50.306;8.566;2023-01-19T22:17:12;28.17;;;23.87;;
15061;SDS011;7630;50.306;8.566;2023-01-19T22:21:18;31.20;;;22.73;;
15061;SDS011;7630;50.306;8.566;2023-01-19T22:25:17;26.30;;;21.60;;
15061;SDS011;7630;50.306;8.566;2023-01-19T22:29:20;37.40;;;25.43;;
15061;SDS011;7630;50.306;8.566;2023-01-19T22:33:21;30.03;;;24.77;;
15061;SDS011;7630;50.306;8.566;2023-01-19T22:37:22;23.10;;;17.90;;
15061;SDS011;7630;50.306;8.566;2023-01-19T22:41:28;22.30;;;17.47;;
15061;SDS011;7630;50.306;8.566;2023-01-19T22:45:28;24.90;;;16.60;;
15061;SDS011;7630;50.306;8.566;2023-01-19T22:49:29;20.30;;;15.97;;
15061;SDS011;7630;50.306;8.566;2023-01-19T22:53:30;22.90;;;15.03;;
15061;SDS011;7630;50.306;8.566;2023-01-19T22:57:32;24.30;;;14.07;;
15061;SDS011;7630;50.306;8.566;2023-01-19T23:01:36;20.33;;;14.40;;
15061;SDS011;7630;50.306;8.566;2023-01-19T23:05:39;17.63;;;13.13;;
15061;SDS011;7630;50.306;8.566;2023-01-19T23:09:40;35.20;;;25.80;;
15061;SDS011;7630;50.306;8.566;2023-01-19T23:13:41;38.27;;;24.10;;
15061;SDS011;7630;50.306;8.566;2023-01-19T23:17:42;44.17;;;27.13;;
15061;SDS011;7630;50.306;8.566;2023-01-19T23:21:45;38.53;;;25.23;;
15061;SDS011;7630;50.306;8.566;2023-01-19T23:25:46;38.70;;;24.63;;
15061;SDS011;7630;50.306;8.566;2023-01-19T23:29:47;30.57;;;23.97;;
15061;SDS011;7630;50.306;8.566;2023-01-19T23:33:50;31.83;;;24.17;;
15061;SDS011;7630;50.306;8.566;2023-01-19T23:37:52;30.30;;;23.37;;
15061;SDS011;7630;50.306;8.566;2023-01-19T23:41:54;37.00;;;22.87;;
15061;SDS011;7630;50.306;8.566;2023-01-19T23:45:55;31.20;;;23.17;;
15061;SDS011;7630;50.306;8.566;2023-01-19T23:49:56;27.30;;;19.30;;
15061;SDS011;7630;50.306;8.566;2023-01-19T23:53:57;20.07;;;16.67;;
15061;SDS011;7630;50.306;8.566;2023-01-19T23:57:59;19.97;;;17.70;;
